createdAt,value
2017-05-16T00:00:16.120Z,1022
2017-05-16T00:00:42.237Z,1021.99
2017-05-16T00:01:08.377Z,1021.99
2017-05-16T00:01:34.505Z,1022.01
2017-05-16T00:02:00.623Z,1022
2017-05-16T00:02:26.730Z,1022.02
2017-05-16T00:02:52.878Z,1021.95
2017-05-16T00:03:19.004Z,1022
2017-05-16T00:03:45.125Z,1022.01
2017-05-16T00:04:11.242Z,1021.99
2017-05-16T00:04:37.381Z,1022.02
2017-05-16T00:05:03.506Z,1022.01
2017-05-16T00:05:29.598Z,1022.02
2017-05-16T00:05:55.704Z,1022.03
2017-05-16T00:06:21.805Z,1022.06
2017-05-16T00:06:47.898Z,1022.02
2017-05-16T00:07:14.004Z,1022.03
2017-05-16T00:07:40.111Z,1022.03
2017-05-16T00:08:06.222Z,1022.02
2017-05-16T00:08:32.372Z,1022.05
2017-05-16T00:08:58.496Z,1022.01
2017-05-16T00:09:24.628Z,1022.04
2017-05-16T00:09:50.756Z,1022.04
2017-05-16T00:10:16.872Z,1022.01
2017-05-16T00:10:43.000Z,1022.01
2017-05-16T00:11:09.113Z,1022.05
2017-05-16T00:11:35.250Z,1022
2017-05-16T00:12:01.379Z,1022
2017-05-16T00:12:27.488Z,1022.03
2017-05-16T00:12:53.578Z,1022.01
2017-05-16T00:13:19.702Z,1022.01
2017-05-16T00:13:45.866Z,1022.01
2017-05-16T00:14:11.960Z,1021.97
2017-05-16T00:14:38.097Z,1021.97
2017-05-16T00:15:04.318Z,1021.99
2017-05-16T00:15:30.415Z,1021.96
2017-05-16T00:15:56.555Z,1021.95
2017-05-16T00:16:22.688Z,1021.97
2017-05-16T00:16:48.787Z,1021.97
2017-05-16T00:17:14.902Z,1021.96
2017-05-16T00:17:41.006Z,1021.95
2017-05-16T00:18:07.113Z,1021.94
2017-05-16T00:18:33.253Z,1021.96
2017-05-16T00:18:59.356Z,1021.92
2017-05-16T00:19:25.488Z,1021.9
2017-05-16T00:19:51.579Z,1021.93
2017-05-16T00:20:17.711Z,1021.94
2017-05-16T00:20:43.802Z,1021.93
2017-05-16T00:21:09.928Z,1021.97
2017-05-16T00:21:36.034Z,1021.94
2017-05-16T00:22:02.125Z,1021.91
2017-05-16T00:22:28.279Z,1021.92
2017-05-16T00:22:54.466Z,1021.94
2017-05-16T00:23:20.584Z,1021.92
2017-05-16T00:23:46.682Z,1021.9
2017-05-16T00:24:12.817Z,1021.91
2017-05-16T00:24:38.984Z,1021.93
2017-05-16T00:25:05.075Z,1021.92
2017-05-16T00:25:31.234Z,1021.9
2017-05-16T00:25:57.332Z,1021.92
2017-05-16T00:26:23.467Z,1021.92
2017-05-16T00:26:49.586Z,1021.92
2017-05-16T00:27:15.706Z,1021.91
2017-05-16T00:27:41.814Z,1021.91
2017-05-16T00:28:07.908Z,1021.87
2017-05-16T00:28:33.999Z,1021.88
2017-05-16T00:29:00.135Z,1021.9
2017-05-16T00:29:26.234Z,1021.89
2017-05-16T00:29:52.346Z,1021.89
2017-05-16T00:30:18.481Z,1021.89
2017-05-16T00:30:44.584Z,1021.9
2017-05-16T00:31:10.709Z,1021.87
2017-05-16T00:31:36.803Z,1021.9
2017-05-16T00:32:02.892Z,1021.88
2017-05-16T00:32:29.002Z,1021.89
2017-05-16T00:32:55.100Z,1021.87
2017-05-16T00:33:21.266Z,1021.87
2017-05-16T00:33:47.402Z,1021.86
2017-05-16T00:34:13.530Z,1021.87
2017-05-16T00:34:39.622Z,1021.87
2017-05-16T00:35:05.805Z,1021.86
2017-05-16T00:35:31.967Z,1021.85
2017-05-16T00:35:58.081Z,1021.85
2017-05-16T00:36:24.209Z,1021.85
2017-05-16T00:36:50.304Z,1021.85
2017-05-16T00:37:16.408Z,1021.85
2017-05-16T00:37:42.568Z,1021.87
2017-05-16T00:38:08.681Z,1021.86
2017-05-16T00:38:34.812Z,1021.84
2017-05-16T00:39:00.949Z,1021.84
2017-05-16T00:39:27.086Z,1021.87
2017-05-16T00:39:53.212Z,1021.84
2017-05-16T00:40:19.345Z,1021.81
2017-05-16T00:40:45.436Z,1021.83
2017-05-16T00:41:11.535Z,1021.83
2017-05-16T00:41:37.669Z,1021.8
2017-05-16T00:42:03.789Z,1021.81
2017-05-16T00:42:29.921Z,1021.85
2017-05-16T00:42:56.032Z,1021.78
2017-05-16T00:43:22.156Z,1021.8
2017-05-16T00:43:48.345Z,1021.79
2017-05-16T00:44:14.438Z,1021.8
2017-05-16T00:44:40.536Z,1021.79
2017-05-16T00:45:06.670Z,1021.82
2017-05-16T00:45:32.791Z,1021.8
2017-05-16T00:45:58.909Z,1021.81
2017-05-16T00:46:25.047Z,1021.8
2017-05-16T00:46:51.170Z,1021.82
2017-05-16T00:47:17.283Z,1021.79
2017-05-16T00:47:43.416Z,1021.82
2017-05-16T00:48:09.561Z,1021.79
2017-05-16T00:48:35.668Z,1021.79
2017-05-16T00:49:01.764Z,1021.8
2017-05-16T00:49:27.883Z,1021.8
2017-05-16T00:49:53.999Z,1021.79
2017-05-16T00:50:20.118Z,1021.76
2017-05-16T00:50:46.211Z,1021.79
2017-05-16T00:51:12.338Z,1021.79
2017-05-16T00:51:38.495Z,1021.76
2017-05-16T00:52:04.610Z,1021.77
2017-05-16T00:52:30.738Z,1021.75
2017-05-16T00:52:56.871Z,1021.78
2017-05-16T00:53:22.965Z,1021.75
2017-05-16T00:53:49.087Z,1021.77
2017-05-16T00:54:15.207Z,1021.76
2017-05-16T00:54:41.337Z,1021.78
2017-05-16T00:55:07.436Z,1021.75
2017-05-16T00:55:33.528Z,1021.77
2017-05-16T00:55:59.662Z,1021.78
2017-05-16T00:56:25.795Z,1021.76
2017-05-16T00:56:51.909Z,1021.79
2017-05-16T00:57:18.058Z,1021.74
2017-05-16T00:57:44.192Z,1021.74
2017-05-16T00:58:10.309Z,1021.75
2017-05-16T00:58:36.407Z,1021.75
2017-05-16T00:59:02.598Z,1021.81
2017-05-16T00:59:28.742Z,1021.76
2017-05-16T00:59:54.858Z,1021.75
2017-05-16T01:00:20.968Z,1021.73
2017-05-16T01:00:47.066Z,1021.73
2017-05-16T01:01:13.158Z,1021.75
2017-05-16T01:01:39.289Z,1021.71
2017-05-16T01:02:05.445Z,1021.73
2017-05-16T01:02:31.537Z,1021.71
2017-05-16T01:02:57.671Z,1021.72
2017-05-16T01:03:23.860Z,1021.71
2017-05-16T01:03:49.970Z,1021.73
2017-05-16T01:04:16.097Z,1021.72
2017-05-16T01:04:42.246Z,1021.73
2017-05-16T01:05:08.378Z,1021.75
2017-05-16T01:05:34.479Z,1021.74
2017-05-16T01:06:00.572Z,1021.74
2017-05-16T01:06:26.676Z,1021.74
2017-05-16T01:06:52.784Z,1021.74
2017-05-16T01:07:18.919Z,1021.74
2017-05-16T01:07:45.071Z,1021.73
2017-05-16T01:08:11.206Z,1021.74
2017-05-16T01:08:37.322Z,1021.71
2017-05-16T01:09:03.447Z,1021.7
2017-05-16T01:09:29.608Z,1021.71
2017-05-16T01:09:55.756Z,1021.71
2017-05-16T01:10:21.886Z,1021.71
2017-05-16T01:10:47.998Z,1021.73
2017-05-16T01:11:14.100Z,1021.72
2017-05-16T01:11:40.207Z,1021.69
2017-05-16T01:12:06.298Z,1021.69
2017-05-16T01:12:32.446Z,1021.7
2017-05-16T01:12:58.627Z,1021.7
2017-05-16T01:13:24.749Z,1021.69
2017-05-16T01:13:50.842Z,1021.7
2017-05-16T01:14:17.009Z,1021.67
2017-05-16T01:14:43.113Z,1021.66
2017-05-16T01:15:09.252Z,1021.68
2017-05-16T01:15:35.387Z,1021.62
2017-05-16T01:16:01.480Z,1021.68
2017-05-16T01:16:27.587Z,1021.65
2017-05-16T01:16:53.709Z,1021.68
2017-05-16T01:17:19.825Z,1021.64
2017-05-16T01:17:46.004Z,1021.66
2017-05-16T01:18:12.141Z,1021.65
2017-05-16T01:18:38.302Z,1021.66
2017-05-16T01:19:04.457Z,1021.66
2017-05-16T01:19:30.587Z,1021.62
2017-05-16T01:19:56.703Z,1021.61
2017-05-16T01:20:22.806Z,1021.59
2017-05-16T01:20:48.970Z,1021.61
2017-05-16T01:21:15.088Z,1021.62
2017-05-16T01:21:41.187Z,1021.59
2017-05-16T01:22:07.301Z,1021.57
2017-05-16T01:22:33.407Z,1021.58
2017-05-16T01:22:59.564Z,1021.56
2017-05-16T01:23:25.654Z,1021.56
2017-05-16T01:23:51.784Z,1021.58
2017-05-16T01:24:17.891Z,1021.61
2017-05-16T01:24:44.017Z,1021.6
2017-05-16T01:25:10.154Z,1021.59
2017-05-16T01:25:36.261Z,1021.56
2017-05-16T01:26:02.353Z,1021.56
2017-05-16T01:26:28.475Z,1021.56
2017-05-16T01:26:54.599Z,1021.55
2017-05-16T01:27:20.703Z,1021.58
2017-05-16T01:27:46.811Z,1021.56
2017-05-16T01:28:12.951Z,1021.55
2017-05-16T01:28:39.077Z,1021.56
2017-05-16T01:29:05.241Z,1021.54
2017-05-16T01:29:31.356Z,1021.54
2017-05-16T01:29:57.524Z,1021.53
2017-05-16T01:30:23.657Z,1021.55
2017-05-16T01:30:49.788Z,1021.5
2017-05-16T01:31:15.898Z,1021.53
2017-05-16T01:31:42.006Z,1021.49
2017-05-16T01:32:08.104Z,1021.53
2017-05-16T01:32:34.207Z,1021.51
2017-05-16T01:33:00.325Z,1021.51
2017-05-16T01:33:26.422Z,1021.5
2017-05-16T01:33:52.585Z,1021.5
2017-05-16T01:34:18.754Z,1021.49
2017-05-16T01:34:44.919Z,1021.46
2017-05-16T01:35:11.028Z,1021.43
2017-05-16T01:35:37.123Z,1021.46
2017-05-16T01:36:03.214Z,1021.47
2017-05-16T01:36:29.351Z,1021.46
2017-05-16T01:36:55.497Z,1021.45
2017-05-16T01:37:21.567Z,1021.45
2017-05-16T01:37:47.670Z,1021.48
2017-05-16T01:38:13.864Z,1021.47
2017-05-16T01:38:39.972Z,1021.43
2017-05-16T01:39:06.099Z,1021.47
2017-05-16T01:39:32.237Z,1021.44
2017-05-16T01:39:58.395Z,1021.44
2017-05-16T01:40:24.521Z,1021.43
2017-05-16T01:40:50.612Z,1021.41
2017-05-16T01:41:16.738Z,1021.43
2017-05-16T01:41:42.847Z,1021.4
2017-05-16T01:42:08.935Z,1021.39
2017-05-16T01:42:35.065Z,1021.44
2017-05-16T01:43:01.225Z,1021.44
2017-05-16T01:43:27.368Z,1021.42
2017-05-16T01:43:53.563Z,1021.42
2017-05-16T01:44:19.727Z,1021.43
2017-05-16T01:44:45.821Z,1021.4
2017-05-16T01:45:11.985Z,1021.42
2017-05-16T01:45:38.115Z,1021.43
2017-05-16T01:46:04.212Z,1021.4
2017-05-16T01:46:30.305Z,1021.38
2017-05-16T01:46:56.465Z,1021.38
2017-05-16T01:47:22.593Z,1021.39
2017-05-16T01:47:48.757Z,1021.41
2017-05-16T01:48:14.916Z,1021.39
2017-05-16T01:48:41.080Z,1021.36
2017-05-16T01:49:07.201Z,1021.38
2017-05-16T01:49:33.297Z,1021.39
2017-05-16T01:49:59.388Z,1021.39
2017-05-16T01:50:25.496Z,1021.41
2017-05-16T01:50:51.622Z,1021.39
2017-05-16T01:51:17.762Z,1021.37
2017-05-16T01:51:43.865Z,1021.37
2017-05-16T01:52:10.024Z,1021.34
2017-05-16T01:52:36.142Z,1021.36
2017-05-16T01:53:02.288Z,1021.35
2017-05-16T01:53:28.396Z,1021.35
2017-05-16T01:53:54.511Z,1021.31
2017-05-16T01:54:20.607Z,1021.34
2017-05-16T01:54:46.733Z,1021.34
2017-05-16T01:55:12.887Z,1021.31
2017-05-16T01:55:38.994Z,1021.36
2017-05-16T01:56:05.132Z,1021.34
2017-05-16T01:56:31.232Z,1021.3
2017-05-16T01:56:57.340Z,1021.36
2017-05-16T01:57:23.456Z,1021.31
2017-05-16T01:57:49.580Z,1021.28
2017-05-16T01:58:15.744Z,1021.31
2017-05-16T01:58:41.917Z,1021.3
2017-05-16T01:59:08.032Z,1021.27
2017-05-16T01:59:34.198Z,1021.31
2017-05-16T02:00:00.375Z,1021.28
2017-05-16T02:00:26.534Z,1021.29
2017-05-16T02:00:52.672Z,1021.31
2017-05-16T02:01:18.816Z,1021.29
2017-05-16T02:01:44.927Z,1021.32
2017-05-16T02:02:11.021Z,1021.29
2017-05-16T02:02:37.188Z,1021.29
2017-05-16T02:03:03.323Z,1021.28
2017-05-16T02:03:29.478Z,1021.31
2017-05-16T02:03:55.621Z,1021.31
2017-05-16T02:04:21.755Z,1021.3
2017-05-16T02:04:47.855Z,1021.3
2017-05-16T02:05:13.972Z,1021.31
2017-05-16T02:05:40.075Z,1021.28
2017-05-16T02:06:06.168Z,1021.3
2017-05-16T02:06:32.335Z,1021.29
2017-05-16T02:06:58.458Z,1021.31
2017-05-16T02:07:24.572Z,1021.28
2017-05-16T02:07:50.708Z,1021.28
2017-05-16T02:08:16.809Z,1021.33
2017-05-16T02:08:42.900Z,1021.33
2017-05-16T02:09:09.056Z,1021.3
2017-05-16T02:09:35.161Z,1021.31
2017-05-16T02:10:01.288Z,1021.32
2017-05-16T02:10:27.390Z,1021.3
2017-05-16T02:10:53.496Z,1021.31
2017-05-16T02:11:19.588Z,1021.32
2017-05-16T02:11:45.747Z,1021.3
2017-05-16T02:12:11.839Z,1021.3
2017-05-16T02:12:37.970Z,1021.28
2017-05-16T02:13:04.105Z,1021.28
2017-05-16T02:13:30.195Z,1021.29
2017-05-16T02:13:56.372Z,1021.29
2017-05-16T02:14:22.532Z,1021.3
2017-05-16T02:14:48.650Z,1021.3
2017-05-16T02:15:14.749Z,1021.32
2017-05-16T02:15:40.884Z,1021.31
2017-05-16T02:16:07.004Z,1021.3
2017-05-16T02:16:33.122Z,1021.28
2017-05-16T02:16:59.228Z,1021.31
2017-05-16T02:17:25.328Z,1021.27
2017-05-16T02:17:51.460Z,1021.28
2017-05-16T02:18:17.553Z,1021.28
2017-05-16T02:18:43.650Z,1021.28
2017-05-16T02:19:09.784Z,1021.28
2017-05-16T02:19:35.879Z,1021.26
2017-05-16T02:20:01.971Z,1021.26
2017-05-16T02:20:28.080Z,1021.28
2017-05-16T02:20:54.177Z,1021.25
2017-05-16T02:21:20.267Z,1021.25
2017-05-16T02:21:46.403Z,1021.25
2017-05-16T02:22:12.557Z,1021.22
2017-05-16T02:22:38.658Z,1021.25
2017-05-16T02:23:04.806Z,1021.25
2017-05-16T02:23:30.899Z,1021.26
2017-05-16T02:23:57.067Z,1021.21
2017-05-16T02:24:23.244Z,1021.24
2017-05-16T02:24:49.385Z,1021.26
2017-05-16T02:25:15.491Z,1021.22
2017-05-16T02:25:41.619Z,1021.26
2017-05-16T02:26:07.736Z,1021.27
2017-05-16T02:26:33.837Z,1021.26
2017-05-16T02:26:59.946Z,1021.29
2017-05-16T02:27:26.079Z,1021.27
2017-05-16T02:27:52.230Z,1021.31
2017-05-16T02:28:18.392Z,1021.31
2017-05-16T02:28:44.534Z,1021.25
2017-05-16T02:29:10.682Z,1021.28
2017-05-16T02:29:36.843Z,1021.31
2017-05-16T02:30:03.018Z,1021.3
2017-05-16T02:30:29.109Z,1021.29
2017-05-16T02:30:55.248Z,1021.27
2017-05-16T02:31:21.396Z,1021.26
2017-05-16T02:31:47.513Z,1021.29
2017-05-16T02:32:13.620Z,1021.3
2017-05-16T02:32:39.748Z,1021.27
2017-05-16T02:33:05.839Z,1021.28
2017-05-16T02:33:31.943Z,1021.28
2017-05-16T02:33:58.059Z,1021.33
2017-05-16T02:34:24.222Z,1021.34
2017-05-16T02:34:50.319Z,1021.32
2017-05-16T02:35:16.410Z,1021.31
2017-05-16T02:35:42.538Z,1021.3
2017-05-16T02:36:08.724Z,1021.32
2017-05-16T02:36:34.816Z,1021.32
2017-05-16T02:37:00.973Z,1021.33
2017-05-16T02:37:27.080Z,1021.33
2017-05-16T02:37:53.171Z,1021.32
2017-05-16T02:38:19.324Z,1021.32
2017-05-16T02:38:45.431Z,1021.34
2017-05-16T02:39:11.525Z,1021.38
2017-05-16T02:39:37.654Z,1021.38
2017-05-16T02:40:03.769Z,1021.33
2017-05-16T02:40:29.899Z,1021.29
2017-05-16T02:40:56.033Z,1021.33
2017-05-16T02:41:22.147Z,1021.29
2017-05-16T02:41:48.275Z,1021.3
2017-05-16T02:42:14.391Z,1021.32
2017-05-16T02:42:40.506Z,1021.31
2017-05-16T02:43:06.603Z,1021.32
2017-05-16T02:43:32.767Z,1021.26
2017-05-16T02:43:58.888Z,1021.33
2017-05-16T02:44:25.008Z,1021.29
2017-05-16T02:44:51.165Z,1021.28
2017-05-16T02:45:17.334Z,1021.27
2017-05-16T02:45:43.398Z,1021.33
2017-05-16T02:46:09.514Z,1021.32
2017-05-16T02:46:35.687Z,1021.24
2017-05-16T02:47:01.764Z,1021.29
2017-05-16T02:47:27.858Z,1021.29
2017-05-16T02:47:54.002Z,1021.29
2017-05-16T02:48:20.140Z,1021.29
2017-05-16T02:48:46.265Z,1021.28
2017-05-16T02:49:12.355Z,1021.28
2017-05-16T02:49:38.572Z,1021.24
2017-05-16T02:50:04.701Z,1021.26
2017-05-16T02:50:30.792Z,1021.28
2017-05-16T02:50:56.948Z,1021.27
2017-05-16T02:51:23.053Z,1021.25
2017-05-16T02:51:49.140Z,1021.26
2017-05-16T02:52:15.241Z,1021.24
2017-05-16T02:52:41.376Z,1021.27
2017-05-16T02:53:07.522Z,1021.23
2017-05-16T02:53:33.667Z,1021.23
2017-05-16T02:53:59.803Z,1021.24
2017-05-16T02:54:25.925Z,1021.25
2017-05-16T02:54:52.018Z,1021.27
2017-05-16T02:55:18.182Z,1021.27
2017-05-16T02:55:44.306Z,1021.22
2017-05-16T02:56:10.517Z,1021.27
2017-05-16T02:56:36.606Z,1021.25
2017-05-16T02:57:02.704Z,1021.24
2017-05-16T02:57:28.838Z,1021.27
2017-05-16T02:57:54.985Z,1021.27
2017-05-16T02:58:21.079Z,1021.26
2017-05-16T02:58:47.246Z,1021.29
2017-05-16T02:59:13.398Z,1021.27
2017-05-16T02:59:39.566Z,1021.22
2017-05-16T03:00:05.699Z,1021.23
2017-05-16T03:00:31.800Z,1021.29
2017-05-16T03:00:57.916Z,1021.25
2017-05-16T03:01:24.072Z,1021.24
2017-05-16T03:01:50.164Z,1021.27
2017-05-16T03:02:16.302Z,1021.28
2017-05-16T03:02:42.400Z,1021.26
2017-05-16T03:03:08.542Z,1021.21
2017-05-16T03:03:34.703Z,1021.26
2017-05-16T03:04:00.887Z,1021.24
2017-05-16T03:04:26.977Z,1021.22
2017-05-16T03:04:53.161Z,1021.25
2017-05-16T03:05:19.324Z,1021.22
2017-05-16T03:05:45.438Z,1021.25
2017-05-16T03:06:11.562Z,1021.27
2017-05-16T03:06:37.698Z,1021.23
2017-05-16T03:07:03.791Z,1021.24
2017-05-16T03:07:29.945Z,1021.23
2017-05-16T03:07:56.061Z,1021.23
2017-05-16T03:08:22.256Z,1021.2
2017-05-16T03:08:48.404Z,1021.19
2017-05-16T03:09:14.540Z,1021.24
2017-05-16T03:09:40.689Z,1021.21
2017-05-16T03:10:06.796Z,1021.23
2017-05-16T03:10:32.912Z,1021.24
2017-05-16T03:10:59.034Z,1021.2
2017-05-16T03:11:25.140Z,1021.2
2017-05-16T03:11:51.235Z,1021.22
2017-05-16T03:12:17.351Z,1021.23
2017-05-16T03:12:43.491Z,1021.21
2017-05-16T03:13:09.639Z,1021.23
2017-05-16T03:13:35.805Z,1021.25
2017-05-16T03:14:01.855Z,1021.25
2017-05-16T03:14:27.983Z,1021.25
2017-05-16T03:14:54.073Z,1021.24
2017-05-16T03:15:20.231Z,1021.23
2017-05-16T03:15:46.336Z,1021.26
2017-05-16T03:16:12.450Z,1021.26
2017-05-16T03:16:38.576Z,1021.25
2017-05-16T03:17:04.683Z,1021.22
2017-05-16T03:17:30.780Z,1021.24
2017-05-16T03:17:56.898Z,1021.29
2017-05-16T03:18:22.996Z,1021.24
2017-05-16T03:18:49.153Z,1021.22
2017-05-16T03:19:15.260Z,1021.26
2017-05-16T03:19:41.397Z,1021.23
2017-05-16T03:20:07.497Z,1021.26
2017-05-16T03:20:33.630Z,1021.23
2017-05-16T03:20:59.720Z,1021.27
2017-05-16T03:21:25.841Z,1021.26
2017-05-16T03:21:52.005Z,1021.25
2017-05-16T03:22:18.098Z,1021.25
2017-05-16T03:22:44.190Z,1021.28
2017-05-16T03:23:10.407Z,1021.26
2017-05-16T03:23:36.557Z,1021.23
2017-05-16T03:24:02.658Z,1021.26
2017-05-16T03:24:28.752Z,1021.29
2017-05-16T03:24:54.874Z,1021.27
2017-05-16T03:25:21.006Z,1021.26
2017-05-16T03:25:47.129Z,1021.26
2017-05-16T03:26:13.241Z,1021.25
2017-05-16T03:26:39.381Z,1021.29
2017-05-16T03:27:05.588Z,1021.29
2017-05-16T03:27:31.678Z,1021.3
2017-05-16T03:27:57.839Z,1021.3
2017-05-16T03:28:23.939Z,1021.29
2017-05-16T03:28:50.079Z,1021.26
2017-05-16T03:29:16.262Z,1021.3
2017-05-16T03:29:42.355Z,1021.28
2017-05-16T03:30:08.487Z,1021.29
2017-05-16T03:30:34.610Z,1021.31
2017-05-16T03:31:00.701Z,1021.28
2017-05-16T03:31:26.836Z,1021.36
2017-05-16T03:31:52.964Z,1021.3
2017-05-16T03:32:19.056Z,1021.36
2017-05-16T03:32:45.212Z,1021.31
2017-05-16T03:33:11.319Z,1021.33
2017-05-16T03:33:37.459Z,1021.32
2017-05-16T03:34:03.586Z,1021.32
2017-05-16T03:34:29.721Z,1021.3
2017-05-16T03:34:55.839Z,1021.34
2017-05-16T03:35:21.941Z,1021.35
2017-05-16T03:35:48.105Z,1021.35
2017-05-16T03:36:14.239Z,1021.35
2017-05-16T03:36:40.346Z,1021.32
2017-05-16T03:37:06.458Z,1021.38
2017-05-16T03:37:32.558Z,1021.35
2017-05-16T03:37:58.666Z,1021.31
2017-05-16T03:38:24.758Z,1021.32
2017-05-16T03:38:50.902Z,1021.35
2017-05-16T03:39:16.988Z,1021.34
2017-05-16T03:39:43.164Z,1021.34
2017-05-16T03:40:09.279Z,1021.34
2017-05-16T03:40:35.411Z,1021.3
2017-05-16T03:41:01.540Z,1021.34
2017-05-16T03:41:27.674Z,1021.34
2017-05-16T03:41:53.791Z,1021.32
2017-05-16T03:42:19.889Z,1021.31
2017-05-16T03:42:46.083Z,1021.32
2017-05-16T03:43:12.206Z,1021.32
2017-05-16T03:43:38.322Z,1021.31
2017-05-16T03:44:04.461Z,1021.33
2017-05-16T03:44:30.582Z,1021.3
2017-05-16T03:44:56.721Z,1021.29
2017-05-16T03:45:22.879Z,1021.28
2017-05-16T03:45:49.009Z,1021.32
2017-05-16T03:46:15.108Z,1021.3
2017-05-16T03:46:41.231Z,1021.3
2017-05-16T03:47:07.321Z,1021.28
2017-05-16T03:47:33.490Z,1021.27
2017-05-16T03:47:59.640Z,1021.33
2017-05-16T03:48:25.755Z,1021.3
2017-05-16T03:48:51.918Z,1021.31
2017-05-16T03:49:18.018Z,1021.28
2017-05-16T03:49:44.110Z,1021.33
2017-05-16T03:50:10.293Z,1021.3
2017-05-16T03:50:36.402Z,1021.28
2017-05-16T03:51:02.514Z,1021.34
2017-05-16T03:51:28.616Z,1021.29
2017-05-16T03:51:54.788Z,1021.29
2017-05-16T03:52:20.946Z,1021.3
2017-05-16T03:52:47.076Z,1021.31
2017-05-16T03:53:13.214Z,1021.29
2017-05-16T03:53:39.350Z,1021.3
2017-05-16T03:54:05.506Z,1021.28
2017-05-16T03:54:31.592Z,1021.32
2017-05-16T03:54:57.735Z,1021.29
2017-05-16T03:55:23.870Z,1021.3
2017-05-16T03:55:49.988Z,1021.32
2017-05-16T03:56:16.085Z,1021.33
2017-05-16T03:56:42.218Z,1021.3
2017-05-16T03:57:08.338Z,1021.31
2017-05-16T03:57:34.429Z,1021.31
2017-05-16T03:58:00.619Z,1021.32
2017-05-16T03:58:26.761Z,1021.27
2017-05-16T03:58:52.902Z,1021.32
2017-05-16T03:59:19.060Z,1021.28
2017-05-16T03:59:45.218Z,1021.3
2017-05-16T04:00:11.335Z,1021.29
2017-05-16T04:00:37.441Z,1021.27
2017-05-16T04:01:03.548Z,1021.3
2017-05-16T04:01:29.659Z,1021.23
2017-05-16T04:01:55.759Z,1021.27
2017-05-16T04:02:21.895Z,1021.28
2017-05-16T04:02:48.061Z,1021.27
2017-05-16T04:03:14.165Z,1021.28
2017-05-16T04:03:40.257Z,1021.28
2017-05-16T04:04:06.413Z,1021.28
2017-05-16T04:04:32.576Z,1021.28
2017-05-16T04:04:58.737Z,1021.25
2017-05-16T04:05:24.837Z,1021.25
2017-05-16T04:05:50.975Z,1021.28
2017-05-16T04:06:17.087Z,1021.28
2017-05-16T04:06:43.210Z,1021.27
2017-05-16T04:07:09.341Z,1021.26
2017-05-16T04:07:35.435Z,1021.28
2017-05-16T04:08:01.629Z,1021.25
2017-05-16T04:08:27.756Z,1021.26
2017-05-16T04:08:53.909Z,1021.27
2017-05-16T04:09:20.044Z,1021.28
2017-05-16T04:09:46.160Z,1021.25
2017-05-16T04:10:12.282Z,1021.27
2017-05-16T04:10:38.392Z,1021.28
2017-05-16T04:11:04.485Z,1021.27
2017-05-16T04:11:30.601Z,1021.26
2017-05-16T04:11:56.710Z,1021.24
2017-05-16T04:12:22.838Z,1021.28
2017-05-16T04:12:48.952Z,1021.27
2017-05-16T04:13:15.082Z,1021.28
2017-05-16T04:13:41.212Z,1021.27
2017-05-16T04:14:07.416Z,1021.27
2017-05-16T04:14:33.559Z,1021.27
2017-05-16T04:14:59.699Z,1021.27
2017-05-16T04:15:25.809Z,1021.26
2017-05-16T04:15:51.931Z,1021.29
2017-05-16T04:16:18.020Z,1021.26
2017-05-16T04:16:44.182Z,1021.29
2017-05-16T04:17:10.283Z,1021.3
2017-05-16T04:17:36.425Z,1021.28
2017-05-16T04:18:02.607Z,1021.26
2017-05-16T04:18:28.712Z,1021.26
2017-05-16T04:18:54.801Z,1021.28
2017-05-16T04:19:20.904Z,1021.26
2017-05-16T04:19:46.997Z,1021.29
2017-05-16T04:20:13.130Z,1021.26
2017-05-16T04:20:39.233Z,1021.27
2017-05-16T04:21:05.369Z,1021.28
2017-05-16T04:21:31.498Z,1021.3
2017-05-16T04:21:57.605Z,1021.26
2017-05-16T04:22:23.721Z,1021.26
2017-05-16T04:22:49.867Z,1021.26
2017-05-16T04:23:16.000Z,1021.3
2017-05-16T04:23:42.115Z,1021.25
2017-05-16T04:24:08.238Z,1021.28
2017-05-16T04:24:34.430Z,1021.27
2017-05-16T04:25:00.581Z,1021.25
2017-05-16T04:25:26.681Z,1021.28
2017-05-16T04:25:52.821Z,1021.24
2017-05-16T04:26:18.946Z,1021.24
2017-05-16T04:26:45.083Z,1021.25
2017-05-16T04:27:11.173Z,1021.23
2017-05-16T04:27:37.317Z,1021.23
2017-05-16T04:28:03.536Z,1021.22
2017-05-16T04:28:29.683Z,1021.24
2017-05-16T04:28:55.824Z,1021.24
2017-05-16T04:29:21.961Z,1021.26
2017-05-16T04:29:48.087Z,1021.26
2017-05-16T04:30:14.204Z,1021.24
2017-05-16T04:30:40.310Z,1021.24
2017-05-16T04:31:06.409Z,1021.24
2017-05-16T04:31:32.540Z,1021.25
2017-05-16T04:31:58.660Z,1021.27
2017-05-16T04:32:24.778Z,1021.24
2017-05-16T04:32:50.943Z,1021.27
2017-05-16T04:33:17.042Z,1021.22
2017-05-16T04:33:43.132Z,1021.25
2017-05-16T04:34:09.296Z,1021.27
2017-05-16T04:34:35.399Z,1021.25
2017-05-16T04:35:01.492Z,1021.25
2017-05-16T04:35:27.595Z,1021.27
2017-05-16T04:35:53.758Z,1021.24
2017-05-16T04:36:19.876Z,1021.26
2017-05-16T04:36:45.998Z,1021.26
2017-05-16T04:37:12.140Z,1021.27
2017-05-16T04:37:38.246Z,1021.28
2017-05-16T04:38:04.407Z,1021.24
2017-05-16T04:38:30.518Z,1021.31
2017-05-16T04:38:56.702Z,1021.27
2017-05-16T04:39:22.861Z,1021.29
2017-05-16T04:39:48.951Z,1021.28
2017-05-16T04:40:15.125Z,1021.29
2017-05-16T04:40:41.259Z,1021.3
2017-05-16T04:41:07.379Z,1021.28
2017-05-16T04:41:33.498Z,1021.28
2017-05-16T04:41:59.633Z,1021.29
2017-05-16T04:42:25.753Z,1021.28
2017-05-16T04:42:51.894Z,1021.27
2017-05-16T04:43:18.086Z,1021.26
2017-05-16T04:43:44.212Z,1021.26
2017-05-16T04:44:10.326Z,1021.27
2017-05-16T04:44:36.435Z,1021.26
2017-05-16T04:45:02.563Z,1021.28
2017-05-16T04:45:28.678Z,1021.29
2017-05-16T04:45:54.808Z,1021.29
2017-05-16T04:46:20.913Z,1021.28
2017-05-16T04:46:47.001Z,1021.26
2017-05-16T04:47:13.127Z,1021.27
2017-05-16T04:47:39.224Z,1021.29
2017-05-16T04:48:05.387Z,1021.27
2017-05-16T04:48:31.514Z,1021.26
2017-05-16T04:48:57.680Z,1021.27
2017-05-16T04:49:23.805Z,1021.3
2017-05-16T04:49:49.939Z,1021.28
2017-05-16T04:50:16.050Z,1021.28
2017-05-16T04:50:42.177Z,1021.28
2017-05-16T04:51:08.313Z,1021.3
2017-05-16T04:51:34.429Z,1021.31
2017-05-16T04:52:00.554Z,1021.26
2017-05-16T04:52:26.688Z,1021.27
2017-05-16T04:52:52.808Z,1021.28
2017-05-16T04:53:18.938Z,1021.31
2017-05-16T04:53:45.076Z,1021.33
2017-05-16T04:54:11.199Z,1021.3
2017-05-16T04:54:37.333Z,1021.32
2017-05-16T04:55:03.453Z,1021.33
2017-05-16T04:55:29.549Z,1021.32
2017-05-16T04:55:55.683Z,1021.35
2017-05-16T04:56:21.806Z,1021.31
2017-05-16T04:56:47.897Z,1021.28
2017-05-16T04:57:14.006Z,1021.3
2017-05-16T04:57:40.127Z,1021.28
2017-05-16T04:58:06.244Z,1021.3
2017-05-16T04:58:32.378Z,1021.32
2017-05-16T04:58:58.498Z,1021.3
2017-05-16T04:59:24.604Z,1021.34
2017-05-16T04:59:50.726Z,1021.32
2017-05-16T05:00:16.818Z,1021.3
2017-05-16T05:00:42.931Z,1021.3
2017-05-16T05:01:09.054Z,1021.32
2017-05-16T05:01:35.147Z,1021.31
2017-05-16T05:02:01.282Z,1021.35
2017-05-16T05:02:27.382Z,1021.34
2017-05-16T05:02:53.524Z,1021.33
2017-05-16T05:03:19.654Z,1021.33
2017-05-16T05:03:45.789Z,1021.32
2017-05-16T05:04:11.958Z,1021.34
2017-05-16T05:04:38.108Z,1021.36
2017-05-16T05:05:04.249Z,1021.37
2017-05-16T05:05:30.411Z,1021.35
2017-05-16T05:05:56.639Z,1021.36
2017-05-16T05:06:22.758Z,1021.34
2017-05-16T05:06:48.858Z,1021.35
2017-05-16T05:07:14.993Z,1021.39
2017-05-16T05:07:41.107Z,1021.37
2017-05-16T05:08:07.225Z,1021.34
2017-05-16T05:08:33.390Z,1021.4
2017-05-16T05:08:59.558Z,1021.39
2017-05-16T05:09:25.656Z,1021.36
2017-05-16T05:09:51.781Z,1021.4
2017-05-16T05:10:17.889Z,1021.4
2017-05-16T05:10:44.047Z,1021.37
2017-05-16T05:11:10.163Z,1021.4
2017-05-16T05:11:36.316Z,1021.39
2017-05-16T05:12:02.424Z,1021.41
2017-05-16T05:12:28.517Z,1021.4
2017-05-16T05:12:54.667Z,1021.38
2017-05-16T05:13:20.799Z,1021.35
2017-05-16T05:13:46.923Z,1021.37
2017-05-16T05:14:13.089Z,1021.36
2017-05-16T05:14:39.256Z,1021.39
2017-05-16T05:15:05.404Z,1021.36
2017-05-16T05:15:31.508Z,1021.36
2017-05-16T05:15:57.624Z,1021.4
2017-05-16T05:16:23.747Z,1021.34
2017-05-16T05:16:49.880Z,1021.39
2017-05-16T05:17:15.975Z,1021.38